Time;durP1;ratioP1;P1;durP2;ratioP2;P2;SDS_P1;SDS_P2;PMS_P1;PMS_P2;Temp;Humidity;BMP_temperature;BMP_pressure;BME280_temperature;BME280_humidity;BME280_pressure;Samples;Min_cycle;Max_cycle;Signal;HPM_P1;HPM_P2
2023/12/14 00:00:35;;;;;;;17.10;11.90;;;23.70;55.00;;;;;;222397;1266;22514;-52
2023/12/14 00:05:59;;;;;;;16.10;12.30;;;23.70;54.10;;;;;;222218;1266;22642;-52
2023/12/14 00:11:07;;;;;;;14.50;12.40;;;23.70;54.50;;;;;;222310;1261;22511;-52
2023/12/14 00:16:11;;;;;;;16.90;12.80;;;23.60;55.10;;;;;;222725;1261;22527;-52
2023/12/14 00:21:15;;;;;;;16.30;12.30;;;23.60;54.80;;;;;;222705;1266;24252;-49
2023/12/14 00:26:19;;;;;;;14.60;11.60;;;23.60;54.90;;;;;;222913;1253;24231;-51
2023/12/14 00:31:24;;;;;;;13.10;11.30;;;23.40;55.30;;;;;;222677;1257;22518;-53
2023/12/14 00:36:28;;;;;;;12.00;10.70;;;23.40;55.60;;;;;;222500;1266;24256;-51
2023/12/14 00:41:33;;;;;;;14.10;12.60;;;23.40;55.70;;;;;;222637;1267;24283;-53
2023/12/14 00:46:37;;;;;;;14.50;12.10;;;23.40;56.00;;;;;;222932;1266;22592;-52
2023/12/14 00:51:41;;;;;;;12.60;11.10;;;23.50;56.20;;;;;;222408;1264;25409;-53
2023/12/14 00:56:45;;;;;;;14.70;12.30;;;23.80;56.10;;;;;;222493;1268;25376;-53
2023/12/14 01:01:50;;;;;;;14.10;11.60;;;24.20;55.40;;;;;;222266;1261;26744;-52
2023/12/14 01:06:54;;;;;;;15.50;11.20;;;24.40;54.80;;;;;;222296;1260;22510;-54
2023/12/14 01:11:58;;;;;;;13.60;11.50;;;24.50;54.90;;;;;;222377;1266;24195;-52
2023/12/14 01:17:03;;;;;;;12.70;10.70;;;24.50;54.50;;;;;;222540;1253;23943;-54
2023/12/14 01:22:07;;;;;;;14.30;11.50;;;24.40;54.90;;;;;;222692;1267;24991;-53
2023/12/14 01:27:13;;;;;;;14.60;11.90;;;24.30;55.20;;;;;;222331;1254;22623;-52
2023/12/14 01:32:19;;;;;;;14.80;11.60;;;24.30;55.10;;;;;;222717;1268;25265;-52
2023/12/14 01:37:23;;;;;;;13.50;12.10;;;24.20;55.00;;;;;;222355;1258;24312;-51
2023/12/14 01:42:27;;;;;;;13.60;11.00;;;24.10;55.20;;;;;;222391;1266;25375;-52
2023/12/14 01:47:31;;;;;;;12.30;10.60;;;24.10;55.00;;;;;;222752;1267;24222;-49
2023/12/14 01:52:35;;;;;;;13.00;10.80;;;24.00;55.00;;;;;;222798;1264;24250;-53
2023/12/14 01:57:40;;;;;;;13.30;10.80;;;23.90;55.20;;;;;;222242;1263;22521;-52
2023/12/14 02:02:45;;;;;;;13.70;10.80;;;23.80;55.80;;;;;;222468;1268;24190;-52
2023/12/14 02:07:50;;;;;;;13.80;11.00;;;23.80;55.20;;;;;;222529;1267;22916;-50
2023/12/14 02:12:54;;;;;;;11.80;10.60;;;23.70;55.50;;;;;;222640;1268;22585;-53
2023/12/14 02:17:59;;;;;;;13.00;10.50;;;23.60;55.60;;;;;;222676;1261;22663;-51
2023/12/14 02:23:04;;;;;;;11.40;10.30;;;23.60;55.30;;;;;;222655;1266;22604;-52
2023/12/14 02:28:08;;;;;;;11.60;10.40;;;23.50;55.00;;;;;;222674;1265;24340;-52
2023/12/14 02:33:12;;;;;;;12.20;9.70;;;23.40;55.60;;;;;;222424;1267;22525;-50
2023/12/14 02:38:16;;;;;;;11.50;10.30;;;23.30;56.00;;;;;;222400;1268;22520;-51
2023/12/14 02:43:23;;;;;;;12.00;10.60;;;23.20;56.00;;;;;;222757;1267;23120;-51
2023/12/14 02:48:29;;;;;;;11.60;9.60;;;23.20;55.70;;;;;;222564;1256;25325;-53
2023/12/14 02:53:33;;;;;;;11.70;9.90;;;23.30;55.70;;;;;;223042;1266;24367;-51
2023/12/14 02:58:38;;;;;;;10.60;9.60;;;23.50;55.50;;;;;;222333;1268;24220;-53
2023/12/14 03:03:42;;;;;;;11.40;10.20;;;23.90;54.60;;;;;;222702;1266;24247;-53
2023/12/14 03:08:47;;;;;;;10.40;9.30;;;24.20;54.10;;;;;;222847;1263;24324;-51
2023/12/14 03:13:51;;;;;;;10.60;9.40;;;24.30;53.70;;;;;;222519;1268;22765;-49
2023/12/14 03:18:56;;;;;;;10.20;9.10;;;24.30;53.60;;;;;;222906;1260;22523;-53
2023/12/14 03:24:00;;;;;;;10.70;9.10;;;24.30;53.70;;;;;;222695;1264;22597;-49
2023/12/14 03:29:04;;;;;;;10.70;8.70;;;24.20;53.80;;;;;;222796;1266;22644;-49
2023/12/14 03:34:09;;;;;;;11.00;9.00;;;24.10;53.80;;;;;;222782;1263;22680;-53
2023/12/14 03:39:13;;;;;;;10.70;9.40;;;24.10;53.80;;;;;;222833;1269;24205;-50
2023/12/14 03:44:17;;;;;;;11.40;9.30;;;24.00;53.80;;;;;;222673;1268;22729;-53
2023/12/14 03:49:22;;;;;;;10.80;9.30;;;24.00;53.80;;;;;;222424;1266;24251;-51
2023/12/14 03:54:27;;;;;;;10.10;9.10;;;23.90;54.00;;;;;;222267;1266;22943;-51
2023/12/14 03:59:32;;;;;;;9.20;8.30;;;23.80;54.80;;;;;;222538;1268;22528;-50
2023/12/14 04:04:36;;;;;;;9.60;8.70;;;23.70;54.50;;;;;;222683;1268;22549;-52
2023/12/14 04:09:43;;;;;;;10.20;9.00;;;23.60;54.40;;;;;;222408;1261;23006;-51
2023/12/14 04:14:51;;;;;;;9.60;8.60;;;23.60;54.50;;;;;;222722;1267;22624;-53
2023/12/14 04:19:55;;;;;;;9.50;8.50;;;23.50;55.00;;;;;;222578;1268;22510;-53
2023/12/14 04:25:00;;;;;;;10.90;8.70;;;23.40;54.80;;;;;;222742;1261;22629;-52
2023/12/14 04:30:05;;;;;;;9.50;8.60;;;23.40;55.50;;;;;;222609;1267;24269;-51
2023/12/14 04:35:10;;;;;;;9.80;8.70;;;23.50;55.00;;;;;;222875;1260;22535;-53
2023/12/14 04:40:15;;;;;;;9.50;8.20;;;23.80;54.60;;;;;;222870;1268;22621;-53
2023/12/14 04:45:19;;;;;;;9.10;8.00;;;24.10;54.20;;;;;;222537;1268;24249;-49
2023/12/14 04:50:24;;;;;;;10.00;9.10;;;24.30;53.50;;;;;;221325;1275;22796;-52
2023/12/14 04:55:28;;;;;;;9.90;8.70;;;24.30;53.70;;;;;;221313;1262;25335;-50
2023/12/14 05:00:32;;;;;;;9.20;8.30;;;24.20;53.40;;;;;;221338;1252;24200;-51
2023/12/14 05:05:37;;;;;;;10.20;8.50;;;24.10;53.50;;;;;;221521;1268;22507;-49
2023/12/14 05:10:42;;;;;;;9.10;7.90;;;24.00;53.90;;;;;;222797;1260;22636;-51
2023/12/14 05:15:47;;;;;;;9.40;8.30;;;23.90;53.80;;;;;;222815;1263;25453;-52
2023/12/14 05:20:51;;;;;;;10.20;9.10;;;23.90;54.00;;;;;;222836;1269;22661;-52
2023/12/14 05:25:55;;;;;;;9.40;8.30;;;23.90;53.60;;;;;;222550;1266;23018;-50
2023/12/14 05:30:59;;;;;;;8.30;7.50;;;23.80;53.70;;;;;;222504;1269;22521;-52
2023/12/14 05:36:08;;;;;;;10.20;9.00;;;23.70;54.10;;;;;;222455;1269;24223;-54
2023/12/14 05:41:12;;;;;;;9.30;8.30;;;23.70;53.90;;;;;;222744;1264;24256;-52
2023/12/14 05:46:23;;;;;;;9.40;8.50;;;23.60;54.00;;;;;;222442;1254;24202;-49
2023/12/14 05:51:32;;;;;;;9.40;8.40;;;23.60;54.00;;;;;;222583;1258;24451;-51
2023/12/14 05:56:36;;;;;;;9.30;8.40;;;23.50;54.10;;;;;;222933;1269;24356;-49
2023/12/14 06:01:43;;;;;;;8.50;7.70;;;23.40;54.30;;;;;;222286;1264;22525;-51
2023/12/14 06:06:48;;;;;;;9.80;8.60;;;23.40;54.30;;;;;;222639;1248;22514;-51
2023/12/14 06:11:52;;;;;;;9.10;8.30;;;23.30;54.50;;;;;;222052;1268;24196;-50
2023/12/14 06:16:58;;;;;;;9.90;8.30;;;23.20;54.60;;;;;;222301;1260;22604;-51
2023/12/14 06:22:02;;;;;;;9.10;8.20;;;23.10;55.00;;;;;;222117;1260;188652;-54
2023/12/14 06:27:07;;;;;;;8.40;7.60;;;23.10;55.00;;;;;;222549;1267;24317;-51
2023/12/14 06:32:11;;;;;;;8.80;8.10;;;23.00;54.60;;;;;;222720;1260;25318;-52
2023/12/14 06:37:16;;;;;;;8.80;8.00;;;23.00;54.80;;;;;;222421;1260;22774;-50
2023/12/14 06:42:21;;;;;;;8.80;8.10;;;22.90;54.80;;;;;;222386;1267;22518;-48
2023/12/14 06:47:25;;;;;;;7.90;7.20;;;22.90;54.90;;;;;;222392;1256;22795;-52
2023/12/14 06:52:30;;;;;;;8.70;7.90;;;22.90;55.30;;;;;;222258;1264;24410;-51
2023/12/14 06:57:34;;;;;;;8.50;7.70;;;23.00;55.00;;;;;;222534;1266;25460;-54
2023/12/14 07:02:38;;;;;;;10.50;7.80;;;23.30;54.90;;;;;;222641;1267;22518;-54
2023/12/14 07:07:42;;;;;;;8.10;7.30;;;23.70;54.30;;;;;;222457;1263;22595;-54
2023/12/14 07:12:48;;;;;;;10.00;7.30;;;24.00;54.00;;;;;;222543;1244;24234;-53
2023/12/14 07:17:54;;;;;;;14.30;7.40;;;24.20;53.70;;;;;;222611;1264;25287;-53
2023/12/14 07:22:59;;;;;;;7.60;6.60;;;24.10;53.60;;;;;;222331;1268;24360;-54
2023/12/14 07:28:04;;;;;;;8.60;7.10;;;24.00;54.00;;;;;;222515;1260;22931;-52
2023/12/14 07:33:09;;;;;;;10.00;6.90;;;23.90;54.50;;;;;;222725;1257;25038;-53
2023/12/14 07:38:15;;;;;;;8.00;7.20;;;23.80;54.50;;;;;;222482;1268;22521;-49
2023/12/14 07:43:20;;;;;;;13.70;7.00;;;23.90;54.30;;;;;;222377;1264;22824;-54
2023/12/14 07:48:30;;;;;;;8.80;6.50;;;23.80;55.00;;;;;;222672;1267;24255;-55
2023/12/14 07:53:37;;;;;;;8.10;7.00;;;23.70;54.70;;;;;;222585;1263;22515;-55
2023/12/14 07:58:41;;;;;;;10.50;6.80;;;23.70;55.30;;;;;;222139;1260;22654;-54
2023/12/14 08:03:46;;;;;;;9.50;7.80;;;23.80;54.70;;;;;;222148;1268;22604;-56
2023/12/14 08:08:50;;;;;;;8.50;7.60;;;23.70;54.80;;;;;;224506;1263;25387;-55
2023/12/14 08:13:54;;;;;;;14.20;7.40;;;23.60;54.90;;;;;;222536;1266;23165;-55
2023/12/14 08:18:59;;;;;;;14.90;7.40;;;23.60;54.80;;;;;;222575;1265;23809;-57
2023/12/14 08:24:04;;;;;;;9.10;7.40;;;23.50;54.90;;;;;;222364;1266;22655;-56
2023/12/14 08:29:09;;;;;;;9.60;6.50;;;23.50;55.00;;;;;;222205;1263;26280;-53
2023/12/14 08:34:13;;;;;;;7.00;6.30;;;23.50;55.40;;;;;;222269;1266;24246;-56
2023/12/14 08:39:18;;;;;;;9.40;7.30;;;23.40;55.60;;;;;;222470;1266;23325;-55
2023/12/14 08:44:22;;;;;;;8.50;7.40;;;23.20;55.60;;;;;;222561;1259;22539;-55
2023/12/14 08:49:26;;;;;;;14.60;7.40;;;23.30;55.70;;;;;;222291;1268;22530;-56
2023/12/14 08:54:30;;;;;;;11.00;6.70;;;23.00;56.10;;;;;;222288;1259;24190;-55
2023/12/14 08:59:35;;;;;;;7.90;7.00;;;22.90;56.20;;;;;;226571;1266;22749;-56
2023/12/14 09:04:39;;;;;;;12.10;6.90;;;22.90;56.00;;;;;;223978;1266;24424;-55
2023/12/14 09:09:43;;;;;;;7.80;7.00;;;22.90;56.10;;;;;;222582;1261;22510;-56
2023/12/14 09:14:48;;;;;;;8.20;7.30;;;22.90;56.30;;;;;;222891;1263;24305;-58
2023/12/14 09:19:52;;;;;;;8.30;6.80;;;23.10;55.70;;;;;;222929;1268;24190;-57
2023/12/14 09:24:57;;;;;;;7.30;6.70;;;23.50;54.80;;;;;;222196;1263;22578;-58
2023/12/14 09:30:02;;;;;;;7.40;6.50;;;23.80;54.30;;;;;;222453;1264;25240;-55
2023/12/14 09:35:07;;;;;;;9.10;7.10;;;23.90;53.70;;;;;;222554;1264;22649;-56
2023/12/14 09:40:11;;;;;;;7.60;6.80;;;23.90;53.50;;;;;;222710;1253;22528;-57
2023/12/14 09:45:17;;;;;;;8.20;7.40;;;23.80;53.80;;;;;;222830;1268;24336;-56
2023/12/14 09:50:23;;;;;;;7.30;6.60;;;23.70;53.40;;;;;;222693;1268;24052;-57
2023/12/14 09:55:28;;;;;;;7.70;6.90;;;23.70;53.50;;;;;;223108;1268;22527;-56
2023/12/14 10:00:41;;;;;;;7.40;6.70;;;23.60;54.00;;;;;;222436;1260;25319;-58
2023/12/14 10:05:46;;;;;;;8.20;6.50;;;23.50;53.90;;;;;;222263;1264;22514;-56
2023/12/14 10:10:52;;;;;;;8.00;6.70;;;23.30;54.10;;;;;;222650;1263;25237;-56
2023/12/14 10:15:58;;;;;;;7.50;6.80;;;23.30;54.40;;;;;;222601;1266;25491;-56
2023/12/14 10:21:03;;;;;;;7.20;6.40;;;23.20;54.30;;;;;;222342;1260;22522;-57
2023/12/14 10:26:25;;;;;;;7.00;6.30;;;23.10;54.30;;;;;;222541;1260;24303;-57
2023/12/14 10:31:37;;;;;;;6.90;6.20;;;23.10;54.40;;;;;;222634;1260;24240;-57
2023/12/14 10:36:45;;;;;;;10.40;6.80;;;23.00;54.10;;;;;;222530;1260;22536;-55
2023/12/14 10:41:54;;;;;;;7.30;6.70;;;23.10;54.70;;;;;;223084;1260;26090;-55
2023/12/14 10:47:10;;;;;;;8.10;6.20;;;23.00;54.60;;;;;;222661;1264;24186;-56
2023/12/14 10:52:15;;;;;;;6.90;6.20;;;23.00;54.80;;;;;;222299;1263;22510;-56
2023/12/14 10:57:21;;;;;;;6.90;6.20;;;23.40;54.20;;;;;;222756;1260;25799;-55
2023/12/14 11:02:25;;;;;;;6.90;6.10;;;23.70;53.60;;;;;;222586;1260;25502;-56
2023/12/14 11:08:12;;;;;;;6.50;5.90;;;23.90;52.80;;;;;;222647;1260;23826;-57
2023/12/14 11:13:17;;;;;;;9.10;6.10;;;23.90;52.80;;;;;;222550;1253;24188;-58
2023/12/14 11:18:25;;;;;;;8.30;6.10;;;23.90;52.90;;;;;;222295;1266;24227;-57
2023/12/14 11:23:32;;;;;;;7.10;6.30;;;23.70;53.10;;;;;;222099;1260;23438;-55
2023/12/14 11:28:38;;;;;;;7.40;5.90;;;23.60;53.40;;;;;;222126;1260;23159;-55
2023/12/14 11:33:44;;;;;;;6.20;5.60;;;23.50;53.70;;;;;;222143;1257;24228;-49
2023/12/14 11:38:50;;;;;;;7.10;6.40;;;23.30;54.30;;;;;;222117;1260;24185;-52
2023/12/14 11:43:57;;;;;;;7.50;6.20;;;23.20;54.40;;;;;;222305;1260;25479;-52
2023/12/14 11:49:03;;;;;;;6.20;5.70;;;23.20;54.30;;;;;;222022;1263;25798;-56
2023/12/14 11:54:08;;;;;;;6.60;5.50;;;23.30;54.20;;;;;;222417;1260;24199;-58
2023/12/14 11:59:17;;;;;;;11.50;5.70;;;23.20;54.20;;;;;;222515;1246;24273;-55
2023/12/14 12:04:21;;;;;;;6.30;5.50;;;23.20;54.20;;;;;;222478;1264;22798;-57
2023/12/14 12:09:36;;;;;;;6.40;5.50;;;23.10;54.60;;;;;;222858;1257;24189;-57
2023/12/14 12:14:41;;;;;;;6.70;6.00;;;23.10;54.20;;;;;;222911;1260;22630;-56
2023/12/14 12:19:46;;;;;;;7.00;5.90;;;23.00;55.00;;;;;;222686;1266;25226;-56
2023/12/14 12:24:50;;;;;;;8.10;5.80;;;23.00;54.80;;;;;;222379;1266;22521;-52
2023/12/14 12:30:08;;;;;;;6.10;5.00;;;23.10;54.70;;;;;;222571;1264;24249;-53
2023/12/14 12:35:13;;;;;;;5.90;5.10;;;23.00;54.90;;;;;;222634;1264;22517;-52
2023/12/14 12:40:19;;;;;;;9.80;6.00;;;23.40;53.60;;;;;;222662;1257;22544;-52
2023/12/14 12:45:27;;;;;;;6.20;5.40;;;23.80;53.50;;;;;;222830;1255;26639;-53
2023/12/14 12:50:33;;;;;;;6.10;5.50;;;24.00;52.60;;;;;;222577;1263;22519;-53
2023/12/14 12:55:37;;;;;;;5.70;5.10;;;24.10;52.60;;;;;;222407;1266;25419;-55
2023/12/14 13:00:41;;;;;;;8.30;5.80;;;24.20;52.80;;;;;;222290;1266;24270;-53
2023/12/14 13:05:46;;;;;;;10.00;5.90;;;24.30;55.20;;;;;;222667;1254;22594;-54
2023/12/14 13:10:54;;;;;;;5.80;5.20;;;24.20;55.20;;;;;;222955;1267;22545;-54
2023/12/14 13:15:59;;;;;;;6.70;5.60;;;24.20;55.00;;;;;;222658;1250;23944;-56
2023/12/14 13:21:06;;;;;;;7.20;5.20;;;24.10;54.70;;;;;;222414;1260;22911;-56
2023/12/14 13:26:09;;;;;;;5.80;5.30;;;24.00;54.60;;;;;;222731;1268;22566;-56
2023/12/14 13:31:14;;;;;;;8.20;5.50;;;23.90;54.80;;;;;;222992;1259;24289;-52
2023/12/14 13:36:19;;;;;;;5.60;5.10;;;23.70;55.00;;;;;;221228;1269;24199;-53
2023/12/14 13:41:23;;;;;;;5.40;4.90;;;23.70;55.00;;;;;;221152;1271;24271;-49
2023/12/14 13:46:29;;;;;;;8.30;5.20;;;23.70;55.00;;;;;;221110;1262;22520;-52
2023/12/14 13:51:34;;;;;;;5.40;4.90;;;23.60;55.00;;;;;;221970;1268;24171;-49
2023/12/14 13:56:37;;;;;;;7.20;5.10;;;23.50;55.00;;;;;;222783;1263;24199;-50
2023/12/14 14:01:42;;;;;;;7.00;5.30;;;23.40;55.10;;;;;;222220;1264;24190;-51
2023/12/14 14:06:46;;;;;;;7.30;4.80;;;23.30;55.00;;;;;;222668;1260;25360;-49
2023/12/14 14:11:50;;;;;;;5.30;4.80;;;23.30;55.10;;;;;;222359;1260;22764;-48
2023/12/14 14:16:55;;;;;;;5.50;5.00;;;23.20;55.20;;;;;;222615;1260;22515;-50
2023/12/14 14:22:00;;;;;;;5.40;5.00;;;23.20;55.20;;;;;;222448;1260;24234;-51
2023/12/14 14:27:04;;;;;;;6.40;4.90;;;23.10;55.20;;;;;;222572;1266;22513;-49
2023/12/14 14:32:08;;;;;;;5.80;5.00;;;23.10;55.60;;;;;;222901;1265;25434;-49
2023/12/14 14:37:13;;;;;;;5.20;4.70;;;23.00;55.20;;;;;;222241;1261;24260;-52
2023/12/14 14:42:17;;;;;;;5.50;5.00;;;23.00;55.20;;;;;;222265;1261;22519;-50
2023/12/14 14:47:23;;;;;;;5.50;5.10;;;23.00;55.10;;;;;;222610;1264;22517;-49
2023/12/14 14:52:28;;;;;;;5.40;4.90;;;22.90;55.70;;;;;;222470;1245;25386;-56
2023/12/14 14:57:33;;;;;;;5.80;5.00;;;22.80;55.30;;;;;;222659;1266;24221;-58
2023/12/14 15:02:38;;;;;;;6.40;5.40;;;22.90;55.20;;;;;;222287;1253;24253;-48
2023/12/14 15:07:43;;;;;;;6.80;5.50;;;22.90;55.20;;;;;;222539;1268;22517;-59
2023/12/14 15:12:47;;;;;;;6.10;4.80;;;22.80;55.10;;;;;;222927;1267;22660;-47
2023/12/14 15:17:52;;;;;;;10.10;5.70;;;22.80;55.10;;;;;;222246;1260;24193;-46
2023/12/14 15:22:57;;;;;;;12.00;6.50;;;23.20;54.90;;;;;;222586;1263;22636;-51
2023/12/14 15:28:02;;;;;;;10.00;6.50;;;23.70;54.30;;;;;;222465;1266;22532;-50
2023/12/14 15:33:06;;;;;;;10.20;6.00;;;24.00;53.80;;;;;;222397;1260;24183;-51
2023/12/14 15:38:13;;;;;;;9.50;6.40;;;24.10;52.90;;;;;;222845;1263;23815;-47
2023/12/14 15:43:17;;;;;;;9.00;6.00;;;24.10;52.80;;;;;;222735;1260;23126;-51
2023/12/14 15:48:21;;;;;;;9.40;6.20;;;24.10;53.10;;;;;;222215;1250;26458;-46
2023/12/14 15:53:26;;;;;;;22.50;9.10;;;23.90;53.20;;;;;;222466;1260;24177;-46
2023/12/14 15:58:35;;;;;;;10.60;5.40;;;23.80;54.80;;;;;;222843;1266;25091;-45
2023/12/14 16:03:44;;;;;;;13.60;6.00;;;23.70;55.50;;;;;;222836;1261;24655;-47
2023/12/14 16:08:48;;;;;;;7.80;6.10;;;23.60;55.60;;;;;;222806;1263;22523;-48
2023/12/14 16:13:53;;;;;;;9.50;5.70;;;23.40;54.80;;;;;;223171;1264;22536;-47
2023/12/14 16:19:01;;;;;;;13.20;6.50;;;23.40;55.60;;;;;;222857;1266;24228;-46
2023/12/14 16:24:06;;;;;;;12.20;6.40;;;23.30;56.10;;;;;;222916;1258;22650;-49
2023/12/14 16:29:10;;;;;;;19.20;6.70;;;23.30;56.70;;;;;;222779;1266;22603;-48
2023/12/14 16:34:16;;;;;;;12.50;6.40;;;23.30;58.50;;;;;;222302;1264;22825;-48
2023/12/14 16:39:21;;;;;;;17.10;7.10;;;23.30;58.60;;;;;;222820;1260;22626;-48
2023/12/14 16:44:25;;;;;;;12.20;6.80;;;23.30;58.70;;;;;;222638;1268;23960;-46
2023/12/14 16:49:29;;;;;;;13.00;6.40;;;23.20;58.20;;;;;;223196;1262;24180;-49
2023/12/14 16:54:34;;;;;;;12.80;7.20;;;23.10;59.00;;;;;;222763;1254;22527;-54
2023/12/14 16:59:47;;;;;;;10.00;6.60;;;23.20;59.50;;;;;;222534;1260;24230;-53
2023/12/14 17:05:07;;;;;;;10.10;6.60;;;23.30;58.00;;;;;;222450;1257;22640;-49
2023/12/14 17:10:16;;;;;;;12.60;6.40;;;23.40;57.30;;;;;;222730;1264;25410;-48
2023/12/14 17:15:23;;;;;;;10.30;6.70;;;23.30;56.80;;;;;;222924;1266;24251;-45
2023/12/14 17:20:29;;;;;;;9.80;6.30;;;23.40;56.50;;;;;;222656;1268;24195;-46
2023/12/14 17:25:35;;;;;;;11.30;6.30;;;23.30;56.30;;;;;;222442;1263;22563;-49
2023/12/14 17:30:40;;;;;;;9.60;6.30;;;23.20;56.60;;;;;;222503;1266;24192;-48
2023/12/14 17:35:45;;;;;;;7.70;6.80;;;23.10;56.60;;;;;;222901;1265;22636;-48
2023/12/14 17:40:49;;;;;;;8.30;6.00;;;23.00;56.60;;;;;;222379;1266;23005;-49
2023/12/14 17:46:03;;;;;;;8.40;6.60;;;22.90;56.30;;;;;;222146;1268;24432;-48
2023/12/14 17:51:07;;;;;;;10.80;6.60;;;22.90;56.50;;;;;;222566;1248;22599;-50
2023/12/14 17:56:13;;;;;;;12.90;6.30;;;22.80;56.30;;;;;;222066;1268;22515;-46
2023/12/14 18:01:20;;;;;;;9.90;5.50;;;23.00;56.00;;;;;;227457;1264;22568;-47
2023/12/14 18:06:24;;;;;;;11.10;6.10;;;23.50;54.70;;;;;;223668;1266;22636;-45
2023/12/14 18:11:29;;;;;;;8.20;5.70;;;24.10;53.60;;;;;;222640;1266;25027;-47
2023/12/14 18:16:35;;;;;;;8.70;5.30;;;24.20;52.50;;;;;;224017;1266;24170;-49
2023/12/14 18:21:39;;;;;;;11.50;6.40;;;24.20;52.10;;;;;;222105;1266;362539;-49
2023/12/14 18:26:44;;;;;;;7.60;6.00;;;24.10;52.20;;;;;;222630;1266;22534;-45
2023/12/14 18:31:48;;;;;;;6.10;5.40;;;24.00;52.20;;;;;;222647;1268;24189;-45
2023/12/14 18:36:52;;;;;;;7.70;5.90;;;23.90;52.30;;;;;;222599;1262;22530;-47
2023/12/14 18:41:57;;;;;;;7.50;5.90;;;23.80;52.70;;;;;;222477;1257;26170;-44
2023/12/14 18:47:04;;;;;;;8.30;5.70;;;23.70;52.40;;;;;;222484;1257;23007;-46
2023/12/14 18:52:08;;;;;;;8.70;5.80;;;23.60;52.40;;;;;;222654;1261;22630;-47
2023/12/14 18:57:12;;;;;;;7.80;5.60;;;23.40;53.00;;;;;;222163;1266;22514;-45
2023/12/14 19:02:16;;;;;;;7.00;6.10;;;23.30;52.70;;;;;;222491;1266;24170;-45
2023/12/14 19:07:21;;;;;;;5.50;5.10;;;23.30;52.70;;;;;;222859;1263;24225;-46
2023/12/14 19:12:25;;;;;;;7.10;6.30;;;23.20;52.70;;;;;;222600;1268;23917;-48
2023/12/14 19:17:29;;;;;;;6.50;5.30;;;23.10;52.70;;;;;;222350;1265;24193;-46
2023/12/14 19:22:34;;;;;;;6.00;5.40;;;23.00;52.70;;;;;;222498;1260;22640;-46
2023/12/14 19:27:52;;;;;;;5.70;5.10;;;22.90;52.60;;;;;;222485;1259;25294;-45
2023/12/14 19:33:01;;;;;;;7.20;5.90;;;22.90;52.60;;;;;;222590;1268;24243;-45
2023/12/14 19:38:08;;;;;;;6.00;5.50;;;22.90;53.10;;;;;;222832;1266;22870;-47
2023/12/14 19:43:13;;;;;;;5.80;5.20;;;22.80;52.50;;;;;;222559;1266;25485;-46
2023/12/14 19:48:17;;;;;;;5.50;5.00;;;22.70;52.40;;;;;;222405;1268;24410;-45
2023/12/14 19:53:22;;;;;;;5.80;5.20;;;22.70;52.30;;;;;;222495;1267;24235;-48
2023/12/14 19:58:28;;;;;;;5.60;5.00;;;22.60;52.30;;;;;;222782;1261;24215;-49
2023/12/14 20:03:37;;;;;;;5.70;5.10;;;22.60;52.30;;;;;;222808;1263;22524;-46
2023/12/14 20:08:41;;;;;;;6.40;5.20;;;22.50;52.20;;;;;;222292;1266;24004;-46
2023/12/14 20:13:45;;;;;;;6.30;5.70;;;22.40;51.90;;;;;;222218;1268;24190;-46
2023/12/14 20:18:50;;;;;;;5.90;5.20;;;22.80;51.50;;;;;;222466;1266;22534;-50
2023/12/14 20:23:54;;;;;;;7.50;5.30;;;23.20;50.90;;;;;;222388;1268;24351;-47
2023/12/14 20:28:59;;;;;;;8.20;6.00;;;23.60;50.00;;;;;;222491;1268;24321;-48
2023/12/14 20:34:03;;;;;;;22.70;16.70;;;23.80;49.60;;;;;;222697;1266;22597;-46
2023/12/14 20:39:08;;;;;;;47.00;32.80;;;23.90;49.30;;;;;;222486;1265;22518;-53
2023/12/14 20:44:12;;;;;;;53.80;35.60;;;23.80;49.20;;;;;;222547;1259;22608;-47
2023/12/14 20:49:17;;;;;;;39.50;25.60;;;23.70;49.80;;;;;;222177;1268;24260;-48
2023/12/14 20:54:22;;;;;;;34.70;25.00;;;23.60;50.10;;;;;;222459;1266;25226;-49
2023/12/14 20:59:26;;;;;;;33.60;24.40;;;23.40;51.10;;;;;;222514;1263;24190;-49
2023/12/14 21:04:30;;;;;;;30.40;22.30;;;23.40;51.20;;;;;;222178;1261;25564;-47
2023/12/14 21:09:35;;;;;;;29.00;22.20;;;23.30;52.00;;;;;;222256;1266;24202;-48
2023/12/14 21:14:39;;;;;;;29.40;20.80;;;23.30;52.00;;;;;;222277;1257;22570;-45
2023/12/14 21:19:48;;;;;;;41.80;20.00;;;23.30;52.20;;;;;;222714;1261;24212;-48
2023/12/14 21:25:00;;;;;;;32.70;20.60;;;23.30;52.00;;;;;;222874;1261;22664;-48
2023/12/14 21:30:05;;;;;;;27.40;20.10;;;23.10;52.30;;;;;;222770;1267;22513;-47
2023/12/14 21:35:10;;;;;;;30.80;18.80;;;23.20;52.30;;;;;;223076;1264;22554;-51
2023/12/14 21:40:14;;;;;;;24.80;17.60;;;23.60;51.60;;;;;;222716;1267;22528;-48
2023/12/14 21:45:19;;;;;;;24.70;17.30;;;23.90;50.90;;;;;;222424;1260;24231;-49
2023/12/14 21:50:23;;;;;;;25.10;17.70;;;24.20;50.40;;;;;;221935;1254;22629;-50
2023/12/14 21:55:28;;;;;;;25.30;17.40;;;24.30;50.10;;;;;;222202;1263;22525;-49
2023/12/14 22:00:32;;;;;;;21.40;16.30;;;24.30;50.60;;;;;;222695;1254;22524;-52
2023/12/14 22:05:37;;;;;;;20.80;17.00;;;24.10;50.70;;;;;;222277;1261;22573;-50
2023/12/14 22:10:42;;;;;;;23.80;16.40;;;24.00;50.80;;;;;;222740;1266;24228;-51
2023/12/14 22:15:47;;;;;;;22.00;16.20;;;23.90;51.00;;;;;;222738;1268;22691;-51
2023/12/14 22:20:52;;;;;;;20.30;16.30;;;23.80;50.90;;;;;;222347;1245;23917;-51
2023/12/14 22:25:56;;;;;;;32.90;17.40;;;23.70;51.80;;;;;;222589;1261;23466;-47
2023/12/14 22:31:01;;;;;;;26.80;16.70;;;23.60;53.50;;;;;;222564;1261;24190;-50
2023/12/14 22:36:27;;;;;;;20.00;15.50;;;23.70;55.20;;;;;;222372;1245;25250;-51
2023/12/14 22:41:34;;;;;;;25.90;15.00;;;23.70;54.90;;;;;;221546;1272;23498;-50
2023/12/14 22:46:40;;;;;;;18.40;14.90;;;23.60;55.10;;;;;;221369;1272;25479;-52
2023/12/14 22:51:44;;;;;;;18.60;15.50;;;23.50;55.20;;;;;;221184;1274;22523;-52
2023/12/14 22:56:54;;;;;;;19.00;14.40;;;23.50;55.10;;;;;;221289;1265;25131;-53
2023/12/14 23:01:59;;;;;;;19.10;14.30;;;23.40;55.00;;;;;;221272;1274;22550;-52
2023/12/14 23:07:03;;;;;;;18.50;13.40;;;23.30;55.10;;;;;;221241;1274;22542;-50
2023/12/14 23:12:08;;;;;;;15.70;13.10;;;23.30;54.90;;;;;;222404;1262;22607;-52
2023/12/14 23:17:12;;;;;;;16.70;13.10;;;23.30;55.20;;;;;;222828;1268;22566;-51
2023/12/14 23:22:17;;;;;;;21.90;13.70;;;23.00;56.10;;;;;;222246;1268;22524;-52
2023/12/14 23:27:24;;;;;;;16.80;13.00;;;23.40;56.20;;;;;;222245;1260;24237;-53
2023/12/14 23:32:28;;;;;;;15.20;12.00;;;23.80;54.90;;;;;;223021;1266;23370;-51
2023/12/14 23:37:33;;;;;;;16.20;12.90;;;24.10;53.70;;;;;;222204;1266;22522;-50
2023/12/14 23:42:39;;;;;;;15.80;12.50;;;24.40;53.30;;;;;;222856;1260;24418;-54
2023/12/14 23:47:43;;;;;;;18.10;12.10;;;24.70;52.60;;;;;;222488;1266;24191;-53
2023/12/14 23:52:48;;;;;;;19.80;12.90;;;24.70;52.50;;;;;;222544;1267;22555;-50
2023/12/14 23:57:52;;;;;;;13.40;11.80;;;24.60;52.80;;;;;;222529;1268;22524;-52
